createdAt,value
2018-11-23T00:00:37.656Z,-2.20
2018-11-23T00:03:05.838Z,-2.20
2018-11-23T00:05:33.773Z,-2.20
2018-11-23T00:08:03.671Z,-2.20
2018-11-23T00:10:32.936Z,-2.30
2018-11-23T00:13:01.423Z,-2.30
2018-11-23T00:15:29.486Z,-2.30
2018-11-23T00:18:02.266Z,-2.30
2018-11-23T00:20:30.466Z,-2.30
2018-11-23T00:22:59.526Z,-2.30
2018-11-23T00:25:27.824Z,-2.30
2018-11-23T00:27:56.290Z,-2.30
2018-11-23T00:30:26.491Z,-2.30
2018-11-23T00:32:54.642Z,-2.30
2018-11-23T00:35:24.884Z,-2.30
2018-11-23T00:37:53.343Z,-2.30
2018-11-23T00:40:24.565Z,-2.30
2018-11-23T00:42:52.907Z,-2.30
2018-11-23T00:45:21.032Z,-2.30
2018-11-23T00:47:49.825Z,-2.30
2018-11-23T00:50:20.007Z,-2.30
2018-11-23T00:52:48.410Z,-2.30
2018-11-23T00:55:17.584Z,-2.30
2018-11-23T00:57:45.674Z,-2.30
2018-11-23T01:00:16.872Z,-2.30
2018-11-23T01:02:45.025Z,-2.40
2018-11-23T01:05:14.379Z,-2.30
2018-11-23T01:07:42.907Z,-2.30
2018-11-23T01:10:12.521Z,-2.30
2018-11-23T01:12:40.951Z,-2.30
2018-11-23T01:15:09.494Z,-2.30
2018-11-23T01:17:37.475Z,-2.30
2018-11-23T01:20:07.783Z,-2.30
2018-11-23T01:22:35.795Z,-2.30
2018-11-23T01:25:04.623Z,-2.40
2018-11-23T01:27:33.647Z,-2.40
2018-11-23T01:30:01.686Z,-2.40
2018-11-23T01:32:30.037Z,-2.40
2018-11-23T01:34:58.077Z,-2.40
2018-11-23T01:37:26.626Z,-2.40
2018-11-23T01:39:54.631Z,-2.30
2018-11-23T01:42:22.503Z,-2.40
2018-11-23T01:44:51.639Z,-2.40
2018-11-23T01:47:22.187Z,-2.40
2018-11-23T01:49:50.047Z,-2.40
2018-11-23T01:52:17.869Z,-2.40
2018-11-23T01:54:45.801Z,-2.40
2018-11-23T01:57:13.621Z,-2.50
2018-11-23T01:59:41.559Z,-2.40
2018-11-23T02:02:10.014Z,-2.50
2018-11-23T02:04:37.859Z,-2.50
2018-11-23T02:07:05.911Z,-2.50
2018-11-23T02:09:33.678Z,-2.50
2018-11-23T02:12:01.775Z,-2.50
2018-11-23T02:14:30.536Z,-2.50
2018-11-23T02:16:58.350Z,-2.50
2018-11-23T02:19:26.136Z,-2.60
2018-11-23T02:21:53.922Z,-2.60
2018-11-23T02:24:21.855Z,-2.60
2018-11-23T02:26:53.015Z,-2.70
2018-11-23T02:29:21.427Z,-2.70
2018-11-23T02:31:49.262Z,-2.80
2018-11-23T02:34:17.013Z,-2.80
2018-11-23T02:36:44.791Z,-2.80
2018-11-23T02:39:12.970Z,-2.80
2018-11-23T02:41:41.483Z,-2.80
2018-11-23T02:44:09.235Z,-2.90
2018-11-23T02:46:39.026Z,-2.90
2018-11-23T02:49:06.823Z,-2.90
2018-11-23T02:51:34.699Z,-2.90
2018-11-23T02:54:02.502Z,-3.00
2018-11-23T02:56:39.204Z,-3.00
2018-11-23T02:59:06.987Z,-3.00
2018-11-23T03:01:36.575Z,-3.00
2018-11-23T03:04:07.071Z,-3.00
2018-11-23T03:06:35.251Z,-3.00
2018-11-23T03:09:06.003Z,-3.00
2018-11-23T03:11:33.804Z,-3.00
2018-11-23T03:14:01.761Z,-3.00
2018-11-23T03:16:29.787Z,-3.00
2018-11-23T03:18:57.495Z,-3.00
2018-11-23T03:21:25.478Z,-3.00
2018-11-23T03:23:54.278Z,-3.10
2018-11-23T03:26:23.710Z,-3.10
2018-11-23T03:28:52.823Z,-3.10
2018-11-23T03:31:20.943Z,-3.10
2018-11-23T03:33:48.789Z,-3.10
2018-11-23T03:36:17.982Z,-3.10
2018-11-23T03:38:45.798Z,-3.10
2018-11-23T03:41:13.941Z,-3.10
2018-11-23T03:43:41.770Z,-3.10
2018-11-23T03:46:09.673Z,-3.10
2018-11-23T03:48:37.474Z,-3.10
2018-11-23T03:51:05.892Z,-3.10
2018-11-23T03:53:33.660Z,-3.20
2018-11-23T03:56:02.240Z,-3.10
2018-11-23T03:58:31.154Z,-3.10
2018-11-23T04:00:59.081Z,-3.10
2018-11-23T04:03:26.967Z,-3.10
2018-11-23T04:05:54.825Z,-3.10
2018-11-23T04:08:24.669Z,-3.20
2018-11-23T04:10:52.513Z,-3.20
2018-11-23T04:13:20.312Z,-3.10
2018-11-23T04:15:48.156Z,-3.20
2018-11-23T04:18:16.059Z,-3.10
2018-11-23T04:20:49.048Z,-3.10
2018-11-23T04:23:16.837Z,-3.10
2018-11-23T04:25:44.852Z,-3.10
2018-11-23T04:28:12.756Z,-3.10
2018-11-23T04:30:41.638Z,-3.10
2018-11-23T04:33:09.742Z,-3.10
2018-11-23T04:35:38.627Z,-3.10
2018-11-23T04:38:08.075Z,-3.10
2018-11-23T04:40:36.360Z,-3.10
2018-11-23T04:43:04.503Z,-3.10
2018-11-23T04:45:34.549Z,-3.10
2018-11-23T04:48:03.398Z,-3.10
2018-11-23T04:50:31.708Z,-3.10
2018-11-23T04:52:59.487Z,-3.00
2018-11-23T04:55:27.282Z,-3.00
2018-11-23T04:57:55.092Z,-3.00
2018-11-23T05:00:23.128Z,-3.00
2018-11-23T05:02:51.137Z,-3.00
2018-11-23T05:05:19.100Z,-3.00
2018-11-23T05:07:47.680Z,-3.00
2018-11-23T05:10:17.532Z,-3.00
2018-11-23T05:12:45.356Z,-3.00
2018-11-23T05:15:15.476Z,-3.00
2018-11-23T05:17:43.571Z,-3.10
2018-11-23T05:20:12.524Z,-3.10
2018-11-23T05:22:40.881Z,-3.10
2018-11-23T05:25:10.328Z,-3.10
2018-11-23T05:27:38.065Z,-3.10
2018-11-23T05:30:09.036Z,-3.10
2018-11-23T05:32:37.135Z,-3.10
2018-11-23T05:35:06.066Z,-3.10
2018-11-23T05:37:33.988Z,-3.10
2018-11-23T05:40:02.213Z,-3.10
2018-11-23T05:42:30.221Z,-3.10
2018-11-23T05:44:58.124Z,-3.10
2018-11-23T05:47:26.112Z,-3.10
2018-11-23T05:49:53.988Z,-3.20
2018-11-23T05:52:22.000Z,-3.10
2018-11-23T05:54:49.940Z,-3.10
2018-11-23T05:57:18.645Z,-3.20
2018-11-23T05:59:48.014Z,-3.20
2018-11-23T06:02:23.376Z,-3.20
2018-11-23T06:04:51.457Z,-3.20
2018-11-23T06:07:19.368Z,-3.20
2018-11-23T06:09:50.446Z,-3.20
2018-11-23T06:12:18.933Z,-3.10
2018-11-23T06:14:48.974Z,-3.10
2018-11-23T06:17:17.473Z,-3.20
2018-11-23T06:19:48.773Z,-3.20
2018-11-23T06:22:24.415Z,-3.10
2018-11-23T06:24:53.169Z,-3.10
2018-11-23T06:27:21.655Z,-3.10
2018-11-23T06:29:50.435Z,-3.10
2018-11-23T06:32:30.426Z,-3.10
2018-11-23T06:34:58.995Z,-3.10
2018-11-23T06:37:27.008Z,-3.10
2018-11-23T06:39:54.901Z,-3.10
2018-11-23T06:42:22.852Z,-3.00
2018-11-23T06:44:51.676Z,-3.00
2018-11-23T06:47:19.657Z,-3.00
2018-11-23T06:49:47.669Z,-3.00
2018-11-23T06:52:15.472Z,-3.00
2018-11-23T06:54:44.408Z,-2.90
2018-11-23T06:57:12.155Z,-2.90
2018-11-23T06:59:40.168Z,-2.90
2018-11-23T07:02:07.994Z,-2.90
2018-11-23T07:04:35.883Z,-2.90
2018-11-23T07:07:03.939Z,-2.90
2018-11-23T07:09:31.741Z,-2.80
2018-11-23T07:12:00.519Z,-2.80
2018-11-23T07:14:29.376Z,-2.70
2018-11-23T07:16:57.236Z,-2.70
2018-11-23T07:19:25.653Z,-2.60
2018-11-23T07:21:54.292Z,-2.60
2018-11-23T07:24:22.341Z,-2.60
2018-11-23T07:26:50.185Z,-2.50
2018-11-23T07:29:18.169Z,-2.40
2018-11-23T07:31:46.005Z,-2.40
2018-11-23T07:34:14.180Z,-2.30
2018-11-23T07:36:42.698Z,-2.30
2018-11-23T07:39:22.685Z,-2.20
2018-11-23T07:42:01.624Z,-2.20
2018-11-23T07:44:29.441Z,-2.10
2018-11-23T07:46:58.177Z,-2.00
2018-11-23T07:49:26.621Z,-1.90
2018-11-23T07:51:54.408Z,-1.90
2018-11-23T07:54:22.167Z,-1.90
2018-11-23T07:56:50.460Z,-1.90
2018-11-23T07:59:18.200Z,-1.80
2018-11-23T08:01:46.045Z,-1.70
2018-11-23T08:04:13.924Z,-1.70
2018-11-23T08:06:42.015Z,-1.60
2018-11-23T08:09:10.942Z,-1.50
2018-11-23T08:11:38.839Z,-1.50
2018-11-23T08:14:06.684Z,-1.40
2018-11-23T08:16:35.341Z,-1.30
2018-11-23T08:19:03.220Z,-1.30
2018-11-23T08:21:32.364Z,-1.20
2018-11-23T08:24:02.435Z,-1.20
2018-11-23T08:26:30.169Z,-1.10
2018-11-23T08:28:58.025Z,-1.10
2018-11-23T08:31:30.503Z,-1.00
2018-11-23T08:33:58.276Z,-1.00
2018-11-23T08:36:26.063Z,-0.90
2018-11-23T08:38:53.785Z,-0.90
2018-11-23T08:41:21.610Z,-0.80
2018-11-23T08:43:50.424Z,-0.70
2018-11-23T08:46:18.244Z,-0.60
2018-11-23T08:48:46.205Z,-0.40
2018-11-23T08:51:14.328Z,-0.30
2018-11-23T08:53:42.216Z,-0.20
2018-11-23T08:56:10.021Z,-0.10
2018-11-23T08:58:37.755Z,0.10
2018-11-23T09:01:10.469Z,0.20
2018-11-23T09:03:38.249Z,0.30
2018-11-23T09:06:06.054Z,0.40
2018-11-23T09:08:34.510Z,0.50
2018-11-23T09:11:02.342Z,0.70
2018-11-23T09:13:34.411Z,0.90
2018-11-23T09:16:03.032Z,1.00
2018-11-23T09:18:30.827Z,1.30
2018-11-23T09:20:58.592Z,1.60
2018-11-23T09:23:26.285Z,2.10
2018-11-23T09:25:55.094Z,2.70
2018-11-23T09:28:23.063Z,3.20
2018-11-23T09:30:54.230Z,3.70
2018-11-23T09:33:22.254Z,4.20
2018-11-23T09:35:51.264Z,4.70
2018-11-23T09:38:19.096Z,5.40
2018-11-23T09:40:46.951Z,6.00
2018-11-23T09:43:14.869Z,6.60
2018-11-23T09:45:43.983Z,7.10
2018-11-23T09:48:11.868Z,7.50
2018-11-23T09:50:39.588Z,7.70
2018-11-23T09:53:07.599Z,8.00
2018-11-23T09:55:36.244Z,8.00
2018-11-23T09:58:05.100Z,8.10
2018-11-23T10:00:34.923Z,8.10
2018-11-23T10:03:04.108Z,8.00
2018-11-23T10:05:37.100Z,8.10
2018-11-23T10:08:06.212Z,7.90
2018-11-23T10:10:36.087Z,7.70
2018-11-23T10:13:04.153Z,7.70
2018-11-23T10:15:32.692Z,8.00
2018-11-23T10:18:02.264Z,8.30
2018-11-23T10:20:31.184Z,8.60
2018-11-23T10:22:58.927Z,8.60
2018-11-23T10:25:28.122Z,8.50
2018-11-23T10:27:55.979Z,8.30
2018-11-23T10:30:25.081Z,8.00
2018-11-23T10:32:54.343Z,7.80
2018-11-23T10:35:22.239Z,8.30
2018-11-23T10:37:51.497Z,8.50
2018-11-23T10:40:25.232Z,8.50
2018-11-23T10:42:53.131Z,8.70
2018-11-23T10:45:22.883Z,8.70
2018-11-23T10:47:52.473Z,8.70
2018-11-23T10:50:22.689Z,8.60
2018-11-23T10:52:52.491Z,9.00
2018-11-23T10:55:21.654Z,9.60
2018-11-23T10:57:49.616Z,10.00
2018-11-23T11:00:23.381Z,10.50
2018-11-23T11:02:57.779Z,11.10
2018-11-23T11:05:32.631Z,11.30
2018-11-23T11:08:01.741Z,11.40
2018-11-23T11:10:29.473Z,11.70
2018-11-23T11:12:58.512Z,11.90
2018-11-23T11:15:26.964Z,11.90
2018-11-23T11:17:58.388Z,11.40
2018-11-23T11:20:26.189Z,11.30
2018-11-23T11:22:54.019Z,10.60
2018-11-23T11:25:21.994Z,10.80
2018-11-23T11:27:49.893Z,10.50
2018-11-23T11:30:18.304Z,10.40
2018-11-23T11:32:46.703Z,10.70
2018-11-23T11:35:14.524Z,10.60
2018-11-23T11:37:56.645Z,10.40
2018-11-23T11:40:24.500Z,10.40
2018-11-23T11:42:53.141Z,10.70
2018-11-23T11:45:21.009Z,11.00
2018-11-23T11:47:48.829Z,11.10
2018-11-23T11:50:16.726Z,11.30
2018-11-23T11:52:45.696Z,11.40
2018-11-23T11:55:18.857Z,11.40
2018-11-23T11:57:47.837Z,11.60
2018-11-23T12:00:17.037Z,11.80
2018-11-23T12:02:47.299Z,12.00
2018-11-23T12:05:16.282Z,11.80
2018-11-23T12:07:44.067Z,11.00
2018-11-23T12:10:15.371Z,10.50
2018-11-23T12:12:43.424Z,10.80
2018-11-23T12:15:12.133Z,10.90
2018-11-23T12:17:40.377Z,10.70
2018-11-23T12:20:10.786Z,10.20
2018-11-23T12:22:38.768Z,9.80
2018-11-23T12:25:08.786Z,9.70
2018-11-23T12:27:37.616Z,9.70
2018-11-23T12:30:08.762Z,9.50
2018-11-23T12:32:37.707Z,9.10
2018-11-23T12:35:07.152Z,8.60
2018-11-23T12:37:34.963Z,8.20
2018-11-23T12:40:03.141Z,7.90
2018-11-23T12:42:43.768Z,7.60
2018-11-23T12:45:13.820Z,7.40
2018-11-23T12:47:42.616Z,7.40
2018-11-23T12:50:15.305Z,7.60
2018-11-23T12:52:44.163Z,7.60
2018-11-23T12:55:13.544Z,7.30
2018-11-23T12:57:41.633Z,7.00
2018-11-23T13:00:16.575Z,6.90
2018-11-23T13:02:44.804Z,6.60
2018-11-23T13:05:12.612Z,6.40
2018-11-23T13:07:44.317Z,6.30
2018-11-23T13:10:12.091Z,6.30
2018-11-23T13:12:39.889Z,6.30
2018-11-23T13:15:07.738Z,6.20
2018-11-23T13:17:35.552Z,6.10
2018-11-23T13:20:08.040Z,6.10
2018-11-23T13:22:37.128Z,6.10
2018-11-23T13:25:08.789Z,5.90
2018-11-23T13:27:36.906Z,5.60
2018-11-23T13:30:07.747Z,5.20
2018-11-23T13:32:38.007Z,5.00
2018-11-23T13:35:07.789Z,4.60
2018-11-23T13:37:35.679Z,4.30
2018-11-23T13:40:04.078Z,4.20
2018-11-23T13:42:32.010Z,4.00
2018-11-23T13:44:59.921Z,3.90
2018-11-23T13:47:29.749Z,3.70
2018-11-23T13:49:57.532Z,3.70
2018-11-23T13:52:26.099Z,3.60
2018-11-23T13:54:54.963Z,3.60
2018-11-23T13:57:22.825Z,3.50
2018-11-23T13:59:52.796Z,3.40
2018-11-23T14:02:20.875Z,3.30
2018-11-23T14:04:49.748Z,3.30
2018-11-23T14:07:17.540Z,3.10
2018-11-23T14:09:45.568Z,3.10
2018-11-23T14:12:20.009Z,3.00
2018-11-23T14:14:47.740Z,3.00
2018-11-23T14:17:16.771Z,3.00
2018-11-23T14:19:45.630Z,3.00
2018-11-23T14:22:13.439Z,2.90
2018-11-23T14:24:41.444Z,2.90
2018-11-23T14:27:09.212Z,2.90
2018-11-23T14:29:39.097Z,2.80
2018-11-23T14:32:10.012Z,2.80
2018-11-23T14:34:38.868Z,2.80
2018-11-23T14:37:06.645Z,2.70
2018-11-23T14:39:36.477Z,2.60
2018-11-23T14:42:05.793Z,2.60
2018-11-23T14:44:33.373Z,2.60
2018-11-23T14:47:00.941Z,2.50
2018-11-23T14:49:28.545Z,2.40
2018-11-23T14:51:56.120Z,2.30
2018-11-23T14:54:23.806Z,2.20
2018-11-23T14:56:51.384Z,2.10
2018-11-23T14:59:18.957Z,2.10
2018-11-23T15:01:51.985Z,2.00
2018-11-23T15:04:15.879Z,2.00
2018-11-23T15:06:43.440Z,2.00
2018-11-23T15:09:11.425Z,2.00
2018-11-23T15:11:39.276Z,2.00
2018-11-23T15:14:07.871Z,2.00
2018-11-23T15:16:35.872Z,2.00
2018-11-23T15:19:04.857Z,1.90
2018-11-23T15:21:32.450Z,1.90
2018-11-23T15:24:00.979Z,1.90
2018-11-23T15:26:27.618Z,1.90
2018-11-23T15:28:56.125Z,1.90
2018-11-23T15:31:23.729Z,1.90
2018-11-23T15:33:51.294Z,1.80
2018-11-23T15:36:18.865Z,1.90
2018-11-23T15:38:46.462Z,1.90
2018-11-23T15:41:14.253Z,1.90
2018-11-23T15:43:41.810Z,1.90
2018-11-23T15:46:09.366Z,1.90
2018-11-23T15:48:36.956Z,1.90
2018-11-23T15:51:05.901Z,1.90
2018-11-23T15:53:33.661Z,1.90
2018-11-23T15:56:01.449Z,1.90
2018-11-23T15:58:29.136Z,1.90
2018-11-23T16:00:56.741Z,1.90
2018-11-23T16:03:24.317Z,1.80
2018-11-23T16:05:51.892Z,1.90
2018-11-23T16:08:19.774Z,1.90
2018-11-23T16:10:47.457Z,1.80
2018-11-23T16:13:15.060Z,1.90
2018-11-23T16:15:42.646Z,1.80
2018-11-23T16:18:10.765Z,1.80
2018-11-23T16:20:40.046Z,1.90
2018-11-23T16:23:10.106Z,1.90
2018-11-23T16:25:37.973Z,1.90
2018-11-23T16:28:06.837Z,1.90
2018-11-23T16:30:35.697Z,1.80
2018-11-23T16:33:04.714Z,1.90
2018-11-23T16:35:34.431Z,1.80
2018-11-23T16:38:03.444Z,1.80
2018-11-23T16:40:36.102Z,1.80
2018-11-23T16:43:04.527Z,1.80
2018-11-23T16:45:34.484Z,1.90
2018-11-23T16:48:03.321Z,1.90
2018-11-23T16:50:31.252Z,1.90
2018-11-23T16:52:59.981Z,1.90
2018-11-23T16:55:27.672Z,1.90
2018-11-23T16:57:56.828Z,1.90
2018-11-23T17:00:28.658Z,1.90
2018-11-23T17:02:57.888Z,1.90
2018-11-23T17:05:28.178Z,1.80
2018-11-23T17:07:55.767Z,1.80
2018-11-23T17:10:23.646Z,1.80
2018-11-23T17:12:52.418Z,1.80
2018-11-23T17:15:21.289Z,1.80
2018-11-23T17:17:48.874Z,1.80
2018-11-23T17:20:18.093Z,1.80
2018-11-23T17:22:47.205Z,1.80
2018-11-23T17:25:16.124Z,1.80
2018-11-23T17:27:47.485Z,1.80
2018-11-23T17:30:21.839Z,1.80
2018-11-23T17:32:49.700Z,1.80
2018-11-23T17:35:17.665Z,1.80
2018-11-23T17:37:45.716Z,1.80
2018-11-23T17:40:15.036Z,1.80
2018-11-23T17:42:42.931Z,1.70
2018-11-23T17:45:14.078Z,1.80
2018-11-23T17:47:42.197Z,1.70
2018-11-23T17:50:13.745Z,1.70
2018-11-23T17:52:42.003Z,1.70
2018-11-23T17:55:10.694Z,1.70
2018-11-23T17:57:38.960Z,1.70
2018-11-23T18:00:14.391Z,1.70
2018-11-23T18:02:46.135Z,1.70
2018-11-23T18:05:15.007Z,1.60
2018-11-23T18:07:42.919Z,1.60
2018-11-23T18:10:14.389Z,1.60
2018-11-23T18:12:43.012Z,1.60
2018-11-23T18:15:14.367Z,1.60
2018-11-23T18:17:42.268Z,1.60
2018-11-23T18:20:11.785Z,1.60
2018-11-23T18:22:40.896Z,1.50
2018-11-23T18:25:12.397Z,1.50
2018-11-23T18:27:40.250Z,1.50
2018-11-23T18:30:09.424Z,1.50
2018-11-23T18:32:37.186Z,1.50
2018-11-23T18:35:06.064Z,1.50
2018-11-23T18:37:33.683Z,1.50
2018-11-23T18:40:01.598Z,1.40
2018-11-23T18:42:29.376Z,1.50
2018-11-23T18:44:57.120Z,1.40
2018-11-23T18:47:24.732Z,1.40
2018-11-23T18:49:52.473Z,1.40
2018-11-23T18:52:20.037Z,1.40
2018-11-23T18:54:47.872Z,1.40
2018-11-23T18:57:15.637Z,1.40
2018-11-23T18:59:43.273Z,1.40
2018-11-23T19:02:11.083Z,1.40
2018-11-23T19:04:38.738Z,1.40
2018-11-23T19:07:08.629Z,1.40
2018-11-23T19:09:34.009Z,1.40
2018-11-23T19:12:01.849Z,1.40
2018-11-23T19:14:29.466Z,1.40
2018-11-23T19:16:57.076Z,1.30
2018-11-23T19:19:24.636Z,1.40
2018-11-23T19:21:52.268Z,1.40
2018-11-23T19:24:19.881Z,1.30
2018-11-23T19:26:47.483Z,1.40
2018-11-23T19:29:15.077Z,1.40
2018-11-23T19:31:42.641Z,1.40
2018-11-23T19:34:10.236Z,1.40
2018-11-23T19:36:37.858Z,1.30
2018-11-23T19:39:07.228Z,1.30
2018-11-23T19:41:34.876Z,1.30
2018-11-23T19:44:02.480Z,1.30
2018-11-23T19:46:30.088Z,1.30
2018-11-23T19:48:57.682Z,1.30
2018-11-23T19:51:25.253Z,1.30
2018-11-23T19:53:53.079Z,1.30
2018-11-23T19:56:20.725Z,1.30
2018-11-23T19:58:48.329Z,1.30
2018-11-23T20:01:20.376Z,1.30
2018-11-23T20:03:48.757Z,1.30
2018-11-23T20:06:16.364Z,1.30
2018-11-23T20:08:44.040Z,1.30
2018-11-23T20:11:11.669Z,1.30
2018-11-23T20:13:39.321Z,1.30
2018-11-23T20:16:06.932Z,1.30
2018-11-23T20:18:34.503Z,1.30
2018-11-23T20:21:02.092Z,1.40
2018-11-23T20:23:29.735Z,1.30
2018-11-23T20:25:57.364Z,1.30
2018-11-23T20:28:25.019Z,1.30
2018-11-23T20:30:52.802Z,1.30
2018-11-23T20:33:20.989Z,1.30
2018-11-23T20:35:48.725Z,1.30
2018-11-23T20:38:16.329Z,1.20
2018-11-23T20:40:45.030Z,1.20
2018-11-23T20:43:12.661Z,1.20
2018-11-23T20:45:40.320Z,1.30
2018-11-23T20:48:07.969Z,1.30
2018-11-23T20:50:35.633Z,1.30
2018-11-23T20:53:03.580Z,1.20
2018-11-23T20:55:31.506Z,1.30
2018-11-23T20:57:59.171Z,1.20
2018-11-23T21:00:27.472Z,1.20
2018-11-23T21:02:55.094Z,1.20
2018-11-23T21:05:22.772Z,1.30
2018-11-23T21:07:50.811Z,1.30
2018-11-23T21:10:24.174Z,1.30
2018-11-23T21:12:52.299Z,1.30
2018-11-23T21:15:23.176Z,1.30
2018-11-23T21:17:50.772Z,1.30
2018-11-23T21:20:18.375Z,1.30
2018-11-23T21:22:46.808Z,1.30
2018-11-23T21:25:14.361Z,1.30
2018-11-23T21:27:41.924Z,1.30
2018-11-23T21:30:15.362Z,1.30
2018-11-23T21:32:43.086Z,1.30
2018-11-23T21:35:11.120Z,1.30
2018-11-23T21:37:39.685Z,1.30
2018-11-23T21:40:11.163Z,1.40
2018-11-23T21:42:38.791Z,1.30
2018-11-23T21:45:08.262Z,1.40
2018-11-23T21:47:36.032Z,1.40
2018-11-23T21:50:04.649Z,1.40
2018-11-23T21:52:33.061Z,1.40
2018-11-23T21:55:00.670Z,1.40
2018-11-23T21:57:28.445Z,1.40
2018-11-23T21:59:56.071Z,1.40
2018-11-23T22:02:23.645Z,1.30
2018-11-23T22:04:51.348Z,1.40
2018-11-23T22:07:18.940Z,1.40
2018-11-23T22:09:46.657Z,1.40
2018-11-23T22:12:14.235Z,1.40
2018-11-23T22:14:41.852Z,1.40
2018-11-23T22:17:09.432Z,1.50
2018-11-23T22:19:37.033Z,1.40
2018-11-23T22:22:04.732Z,1.50
2018-11-23T22:24:32.273Z,1.50
2018-11-23T22:26:59.877Z,1.50
2018-11-23T22:29:27.441Z,1.50
2018-11-23T22:31:55.043Z,1.50
2018-11-23T22:34:22.580Z,1.50
2018-11-23T22:36:50.117Z,1.50
2018-11-23T22:39:17.682Z,1.50
2018-11-23T22:41:45.281Z,1.50
2018-11-23T22:44:12.813Z,1.50
2018-11-23T22:46:40.398Z,1.50
2018-11-23T22:49:08.024Z,1.50
2018-11-23T22:51:35.594Z,1.50
2018-11-23T22:54:03.165Z,1.50
2018-11-23T22:56:30.712Z,1.50
2018-11-23T22:58:58.294Z,1.50
2018-11-23T23:01:25.871Z,1.50
2018-11-23T23:03:53.448Z,1.50
2018-11-23T23:06:21.021Z,1.50
2018-11-23T23:08:48.574Z,1.50
2018-11-23T23:11:16.136Z,1.50
2018-11-23T23:13:43.708Z,1.50
2018-11-23T23:16:11.288Z,1.60
2018-11-23T23:18:38.878Z,1.60
2018-11-23T23:21:06.501Z,1.60
2018-11-23T23:23:34.042Z,1.60
2018-11-23T23:26:01.662Z,1.60
2018-11-23T23:28:29.195Z,1.60
2018-11-23T23:30:56.757Z,1.60
2018-11-23T23:33:24.316Z,1.50
2018-11-23T23:35:51.844Z,1.50
2018-11-23T23:38:19.395Z,1.60
2018-11-23T23:40:47.195Z,1.50
2018-11-23T23:43:14.728Z,1.60
2018-11-23T23:45:42.281Z,1.50
2018-11-23T23:48:09.820Z,1.50
2018-11-23T23:50:37.344Z,1.50
2018-11-23T23:53:04.900Z,1.50
2018-11-23T23:55:32.532Z,1.50
2018-11-23T23:58:00.117Z,1.60
